Thomas, OK (73669)

12:46 PM CST on December 03, 2016 (GMT -0600)
East Hughes and 5th Street | | Change Station

Elev 1788 ft 35.75 °N, 98.74 °W | Updated 15 seconds ago

Rain
Rain
43.3 °F
Feels Like 43 °F
N
0.0
Wind Variable Wind from SSW
Gusts 0.0 mph

Today
High -- | Low -- °F
--% Chance of Precip.
Yesterday
High -- | Low -- °F
Precip. -- in
Pressure 30.13 in
Visibility -9999.0 miles
Clouds Overcast 1200 ft
Windchill 43 °F
Dew Point 42 °F
Humidity 93%
Rainfall 0.18 in
Snow Depth Not available.
7:28 AM 5:21 PM
Waxing Crescent, 16% visible
METAR KCLK 031855Z AUTO 00000KT OVC012 06/04 A3013 RMK AO2 PWINO
Pressure 30.13 in
Visibility -9999.0 miles
Clouds Overcast 1200 ft
Windchill 43 °F
Dew Point 42 °F
Humidity 93%
Rainfall 0.18 in
Snow Depth Not available.
7:28 AM 5:21 PM
Waxing Crescent, 16% visible
METAR KCLK 031855Z AUTO 00000KT OVC012 06/04 A3013 RMK AO2 PWINO

10-Day Weather Forecast

Almanac

Astronomy

Dec. 03, 2016 Rise Set
Actual Time
Civil Twilight
Nautical Twilight
Astronomical Twilight
Moon
Length of Visible Light
Length of Day
Tomorrow will be .
, % of the Moon is Illuminated

Today's Extremes

State Highs State Lows

Community

WunderPhotos

Upload Photos

1,955,469 photos uploaded!

WunderBlog® & News

Nearby

Air Quality

  Air Quality AQ Index Pollutant
Not available.

Snow Depth

Station Depth Elevation

Earthquake Activity

City Distance Mag. Time & Date
Minimum magnitude displayed is 2.5.

Coastal Water Temperatures

Place Temperature

Stations

Nearby Weather Stations

Station Location Temp. Windchill Dew Point Humidity Wind Precip. Elev Updated Type
                   

Watches & Warnings

There are currently no watches in effect.